sensor_id;sensor_type;location;lat;lon;timestamp;temperature;humidity
34927;DHT22;21132;48.308;14.274;2022-09-09T00:00:14;17.30;73.60
34927;DHT22;21132;48.308;14.274;2022-09-09T00:03:27;17.30;73.60
34927;DHT22;21132;48.308;14.274;2022-09-09T00:05:50;17.30;73.50
34927;DHT22;21132;48.308;14.274;2022-09-09T00:08:22;17.30;73.30
34927;DHT22;21132;48.308;14.274;2022-09-09T00:10:57;17.30;73.00
34927;DHT22;21132;48.308;14.274;2022-09-09T00:13:32;17.30;73.20
34927;DHT22;21132;48.308;14.274;2022-09-09T00:16:27;17.30;72.50
34927;DHT22;21132;48.308;14.274;2022-09-09T00:19:20;17.30;72.00
34927;DHT22;21132;48.308;14.274;2022-09-09T00:24:43;17.20;71.80
34927;DHT22;21132;48.308;14.274;2022-09-09T00:30:23;17.10;71.90
34927;DHT22;21132;48.308;14.274;2022-09-09T00:33:10;17.00;71.80
34927;DHT22;21132;48.308;14.274;2022-09-09T00:35:49;17.00;72.00
34927;DHT22;21132;48.308;14.274;2022-09-09T00:38:32;17.00;72.40
34927;DHT22;21132;48.308;14.274;2022-09-09T00:44:02;17.00;72.60
34927;DHT22;21132;48.308;14.274;2022-09-09T00:47:00;17.00;72.40
34927;DHT22;21132;48.308;14.274;2022-09-09T00:50:01;16.90;72.60
34927;DHT22;21132;48.308;14.274;2022-09-09T00:52:51;16.90;72.50
34927;DHT22;21132;48.308;14.274;2022-09-09T00:55:27;16.90;72.30
34927;DHT22;21132;48.308;14.274;2022-09-09T00:57:54;16.90;72.10
34927;DHT22;21132;48.308;14.274;2022-09-09T01:00:30;16.80;72.10
34927;DHT22;21132;48.308;14.274;2022-09-09T01:08:42;16.80;72.30
34927;DHT22;21132;48.308;14.274;2022-09-09T01:16:43;16.70;72.70
34927;DHT22;21132;48.308;14.274;2022-09-09T01:19:17;16.70;72.60
34927;DHT22;21132;48.308;14.274;2022-09-09T01:22:26;16.70;72.60
34927;DHT22;21132;48.308;14.274;2022-09-09T01:27:21;16.70;72.30
34927;DHT22;21132;48.308;14.274;2022-09-09T01:29:48;16.70;72.20
34927;DHT22;21132;48.308;14.274;2022-09-09T01:32:44;16.70;71.90
34927;DHT22;21132;48.308;14.274;2022-09-09T01:35:15;16.70;72.10
34927;DHT22;21132;48.308;14.274;2022-09-09T01:37:45;16.60;72.00
34927;DHT22;21132;48.308;14.274;2022-09-09T01:40:10;16.60;72.10
34927;DHT22;21132;48.308;14.274;2022-09-09T01:42:36;16.60;72.20
34927;DHT22;21132;48.308;14.274;2022-09-09T01:45:03;16.60;72.40
34927;DHT22;21132;48.308;14.274;2022-09-09T01:47:29;16.50;72.40
34927;DHT22;21132;48.308;14.274;2022-09-09T01:49:55;16.60;72.50
34927;DHT22;21132;48.308;14.274;2022-09-09T01:52:24;16.50;72.50
34927;DHT22;21132;48.308;14.274;2022-09-09T01:54:50;16.50;72.50
34927;DHT22;21132;48.308;14.274;2022-09-09T02:00:07;16.50;72.40
34927;DHT22;21132;48.308;14.274;2022-09-09T02:05:38;16.40;72.40
34927;DHT22;21132;48.308;14.274;2022-09-09T02:08:10;16.50;72.40
34927;DHT22;21132;48.308;14.274;2022-09-09T02:13:16;16.40;72.40
34927;DHT22;21132;48.308;14.274;2022-09-09T02:16:07;16.40;72.60
34927;DHT22;21132;48.308;14.274;2022-09-09T02:21:06;16.40;72.60
34927;DHT22;21132;48.308;14.274;2022-09-09T02:23:34;16.40;72.60
34927;DHT22;21132;48.308;14.274;2022-09-09T02:26:02;16.40;72.60
34927;DHT22;21132;48.308;14.274;2022-09-09T02:28:29;16.40;72.60
34927;DHT22;21132;48.308;14.274;2022-09-09T02:30:57;16.40;72.60
34927;DHT22;21132;48.308;14.274;2022-09-09T02:33:35;16.30;72.60
34927;DHT22;21132;48.308;14.274;2022-09-09T02:36:03;16.30;72.60
34927;DHT22;21132;48.308;14.274;2022-09-09T02:38:36;16.40;72.60
34927;DHT22;21132;48.308;14.274;2022-09-09T02:41:03;16.30;72.60
34927;DHT22;21132;48.308;14.274;2022-09-09T02:43:33;16.40;72.60
34927;DHT22;21132;48.308;14.274;2022-09-09T02:48:34;16.30;72.50
34927;DHT22;21132;48.308;14.274;2022-09-09T02:51:19;16.30;72.50
34927;DHT22;21132;48.308;14.274;2022-09-09T02:56:21;16.20;72.50
34927;DHT22;21132;48.308;14.274;2022-09-09T02:58:49;16.20;72.50
34927;DHT22;21132;48.308;14.274;2022-09-09T03:01:17;16.20;72.50
34927;DHT22;21132;48.308;14.274;2022-09-09T03:03:43;16.20;72.50
34927;DHT22;21132;48.308;14.274;2022-09-09T03:06:10;16.20;72.60
34927;DHT22;21132;48.308;14.274;2022-09-09T03:08:37;16.10;72.50
34927;DHT22;21132;48.308;14.274;2022-09-09T03:11:03;16.10;72.50
34927;DHT22;21132;48.308;14.274;2022-09-09T03:13:29;16.10;72.60
34927;DHT22;21132;48.308;14.274;2022-09-09T03:15:55;16.20;72.70
34927;DHT22;21132;48.308;14.274;2022-09-09T03:18:21;16.10;72.80
34927;DHT22;21132;48.308;14.274;2022-09-09T03:20:47;16.10;73.50
34927;DHT22;21132;48.308;14.274;2022-09-09T03:23:14;16.10;74.20
34927;DHT22;21132;48.308;14.274;2022-09-09T03:25:46;16.10;74.50
34927;DHT22;21132;48.308;14.274;2022-09-09T03:28:12;16.20;74.80
34927;DHT22;21132;48.308;14.274;2022-09-09T03:30:38;16.20;75.00
34927;DHT22;21132;48.308;14.274;2022-09-09T03:33:03;16.20;75.00
34927;DHT22;21132;48.308;14.274;2022-09-09T03:35:29;16.30;75.10
34927;DHT22;21132;48.308;14.274;2022-09-09T03:37:55;16.30;75.10
34927;DHT22;21132;48.308;14.274;2022-09-09T03:40:21;16.30;75.00
34927;DHT22;21132;48.308;14.274;2022-09-09T03:42:47;16.30;75.00
34927;DHT22;21132;48.308;14.274;2022-09-09T03:45:14;16.40;75.00
34927;DHT22;21132;48.308;14.274;2022-09-09T03:47:40;16.40;75.10
34927;DHT22;21132;48.308;14.274;2022-09-09T03:50:06;16.50;75.20
34927;DHT22;21132;48.308;14.274;2022-09-09T03:52:38;16.50;75.00
34927;DHT22;21132;48.308;14.274;2022-09-09T03:55:07;16.50;74.80
34927;DHT22;21132;48.308;14.274;2022-09-09T03:57:33;16.60;74.60
34927;DHT22;21132;48.308;14.274;2022-09-09T04:00:05;16.60;74.40
34927;DHT22;21132;48.308;14.274;2022-09-09T04:02:31;16.60;74.30
34927;DHT22;21132;48.308;14.274;2022-09-09T04:04:56;16.60;74.10
34927;DHT22;21132;48.308;14.274;2022-09-09T04:07:22;16.70;74.20
34927;DHT22;21132;48.308;14.274;2022-09-09T04:09:48;16.70;74.20
34927;DHT22;21132;48.308;14.274;2022-09-09T04:12:14;16.70;74.10
34927;DHT22;21132;48.308;14.274;2022-09-09T04:14:39;16.70;73.90
34927;DHT22;21132;48.308;14.274;2022-09-09T04:17:05;16.70;73.80
34927;DHT22;21132;48.308;14.274;2022-09-09T04:19:32;16.70;73.70
34927;DHT22;21132;48.308;14.274;2022-09-09T04:21:58;16.70;73.70
34927;DHT22;21132;48.308;14.274;2022-09-09T04:24:24;16.70;73.60
34927;DHT22;21132;48.308;14.274;2022-09-09T04:26:53;16.70;73.50
34927;DHT22;21132;48.308;14.274;2022-09-09T04:29:18;16.70;73.50
34927;DHT22;21132;48.308;14.274;2022-09-09T04:31:44;16.70;73.50
34927;DHT22;21132;48.308;14.274;2022-09-09T04:34:10;16.80;73.70
34927;DHT22;21132;48.308;14.274;2022-09-09T04:36:36;16.80;73.80
34927;DHT22;21132;48.308;14.274;2022-09-09T04:39:02;16.80;73.90
34927;DHT22;21132;48.308;14.274;2022-09-09T04:41:28;16.80;74.00
34927;DHT22;21132;48.308;14.274;2022-09-09T04:43:54;16.80;73.90
34927;DHT22;21132;48.308;14.274;2022-09-09T04:46:21;16.80;73.80
34927;DHT22;21132;48.308;14.274;2022-09-09T04:48:49;16.90;73.70
34927;DHT22;21132;48.308;14.274;2022-09-09T04:51:15;16.90;73.70
34927;DHT22;21132;48.308;14.274;2022-09-09T04:53:41;16.90;73.70
34927;DHT22;21132;48.308;14.274;2022-09-09T04:56:12;17.00;73.70
34927;DHT22;21132;48.308;14.274;2022-09-09T04:58:39;17.00;73.60
34927;DHT22;21132;48.308;14.274;2022-09-09T05:01:19;17.00;73.60
34927;DHT22;21132;48.308;14.274;2022-09-09T05:03:47;17.00;73.50
34927;DHT22;21132;48.308;14.274;2022-09-09T05:06:18;17.10;73.50
34927;DHT22;21132;48.308;14.274;2022-09-09T05:08:44;17.10;73.60
34927;DHT22;21132;48.308;14.274;2022-09-09T05:11:30;17.10;73.70
34927;DHT22;21132;48.308;14.274;2022-09-09T05:13:57;17.10;73.60
34927;DHT22;21132;48.308;14.274;2022-09-09T05:16:24;17.20;73.50
34927;DHT22;21132;48.308;14.274;2022-09-09T05:18:50;17.20;73.60
34927;DHT22;21132;48.308;14.274;2022-09-09T05:21:21;17.30;73.70
34927;DHT22;21132;48.308;14.274;2022-09-09T05:23:47;17.30;73.50
34927;DHT22;21132;48.308;14.274;2022-09-09T05:26:16;17.40;73.10
34927;DHT22;21132;48.308;14.274;2022-09-09T05:28:42;17.40;73.10
34927;DHT22;21132;48.308;14.274;2022-09-09T05:31:09;17.50;73.50
34927;DHT22;21132;48.308;14.274;2022-09-09T05:33:38;17.60;73.90
34927;DHT22;21132;48.308;14.274;2022-09-09T05:36:11;17.70;74.10
34927;DHT22;21132;48.308;14.274;2022-09-09T05:38:39;17.80;73.70
34927;DHT22;21132;48.308;14.274;2022-09-09T05:41:05;17.90;73.60
34927;DHT22;21132;48.308;14.274;2022-09-09T05:43:31;18.00;73.10
34927;DHT22;21132;48.308;14.274;2022-09-09T05:46:07;18.10;72.60
34927;DHT22;21132;48.308;14.274;2022-09-09T05:48:38;18.20;72.70
34927;DHT22;21132;48.308;14.274;2022-09-09T05:51:06;18.30;72.60
34927;DHT22;21132;48.308;14.274;2022-09-09T05:53:33;18.40;72.30
34927;DHT22;21132;48.308;14.274;2022-09-09T05:56:04;18.50;72.20
34927;DHT22;21132;48.308;14.274;2022-09-09T05:58:34;18.60;72.00
34927;DHT22;21132;48.308;14.274;2022-09-09T06:01:04;18.70;72.00
34927;DHT22;21132;48.308;14.274;2022-09-09T06:03:30;18.80;72.10
34927;DHT22;21132;48.308;14.274;2022-09-09T06:05:58;18.90;71.70
34927;DHT22;21132;48.308;14.274;2022-09-09T06:08:24;19.00;71.40
34927;DHT22;21132;48.308;14.274;2022-09-09T06:10:50;19.10;71.30
34927;DHT22;21132;48.308;14.274;2022-09-09T06:13:18;19.20;71.20
34927;DHT22;21132;48.308;14.274;2022-09-09T06:15:51;19.30;71.10
34927;DHT22;21132;48.308;14.274;2022-09-09T06:18:18;19.40;70.90
34927;DHT22;21132;48.308;14.274;2022-09-09T06:21:00;19.50;70.80
34927;DHT22;21132;48.308;14.274;2022-09-09T06:23:27;19.60;70.50
34927;DHT22;21132;48.308;14.274;2022-09-09T06:26:12;19.80;70.10
34927;DHT22;21132;48.308;14.274;2022-09-09T06:28:38;20.00;69.50
34927;DHT22;21132;48.308;14.274;2022-09-09T06:31:09;20.10;69.10
34927;DHT22;21132;48.308;14.274;2022-09-09T06:33:37;20.20;68.80
34927;DHT22;21132;48.308;14.274;2022-09-09T06:36:05;20.30;68.00
34927;DHT22;21132;48.308;14.274;2022-09-09T06:38:31;20.40;67.20
34927;DHT22;21132;48.308;14.274;2022-09-09T06:40:58;20.50;67.10
34927;DHT22;21132;48.308;14.274;2022-09-09T06:43:25;20.50;66.70
34927;DHT22;21132;48.308;14.274;2022-09-09T06:45:59;20.60;66.40
34927;DHT22;21132;48.308;14.274;2022-09-09T06:48:26;20.60;65.60
34927;DHT22;21132;48.308;14.274;2022-09-09T06:51:11;20.60;66.10
34927;DHT22;21132;48.308;14.274;2022-09-09T06:53:38;20.60;64.90
34927;DHT22;21132;48.308;14.274;2022-09-09T06:58:40;20.70;65.10
34927;DHT22;21132;48.308;14.274;2022-09-09T07:01:09;20.70;64.80
34927;DHT22;21132;48.308;14.274;2022-09-09T07:03:35;20.70;64.60
34927;DHT22;21132;48.308;14.274;2022-09-09T07:06:01;20.70;64.90
34927;DHT22;21132;48.308;14.274;2022-09-09T07:08:27;20.80;65.10
34927;DHT22;21132;48.308;14.274;2022-09-09T07:10:53;20.80;64.60
34927;DHT22;21132;48.308;14.274;2022-09-09T07:13:24;20.80;64.40
34927;DHT22;21132;48.308;14.274;2022-09-09T07:15:51;20.80;63.80
34927;DHT22;21132;48.308;14.274;2022-09-09T07:18:18;20.90;65.20
34927;DHT22;21132;48.308;14.274;2022-09-09T07:20:53;21.00;65.10
34927;DHT22;21132;48.308;14.274;2022-09-09T07:23:20;21.00;64.20
34927;DHT22;21132;48.308;14.274;2022-09-09T07:25:46;21.10;63.40
34927;DHT22;21132;48.308;14.274;2022-09-09T07:28:13;21.30;64.00
34927;DHT22;21132;48.308;14.274;2022-09-09T07:30:39;21.40;64.10
34927;DHT22;21132;48.308;14.274;2022-09-09T07:33:05;21.50;63.70
34927;DHT22;21132;48.308;14.274;2022-09-09T07:35:31;21.70;63.30
34927;DHT22;21132;48.308;14.274;2022-09-09T07:37:57;21.90;63.00
34927;DHT22;21132;48.308;14.274;2022-09-09T07:40:24;22.00;63.00
34927;DHT22;21132;48.308;14.274;2022-09-09T07:42:50;22.20;63.40
34927;DHT22;21132;48.308;14.274;2022-09-09T07:45:16;22.30;62.50
34927;DHT22;21132;48.308;14.274;2022-09-09T07:47:41;22.50;61.90
34927;DHT22;21132;48.308;14.274;2022-09-09T07:50:10;22.60;61.90
34927;DHT22;21132;48.308;14.274;2022-09-09T07:52:37;22.80;61.70
34927;DHT22;21132;48.308;14.274;2022-09-09T07:55:03;22.90;60.90
34927;DHT22;21132;48.308;14.274;2022-09-09T07:57:30;23.00;59.90
34927;DHT22;21132;48.308;14.274;2022-09-09T07:59:59;23.20;59.80
34927;DHT22;21132;48.308;14.274;2022-09-09T08:02:25;23.20;59.80
34927;DHT22;21132;48.308;14.274;2022-09-09T08:04:53;23.30;59.00
34927;DHT22;21132;48.308;14.274;2022-09-09T08:07:19;23.40;58.60
34927;DHT22;21132;48.308;14.274;2022-09-09T08:09:46;23.40;58.60
34927;DHT22;21132;48.308;14.274;2022-09-09T08:12:13;23.50;58.10
34927;DHT22;21132;48.308;14.274;2022-09-09T08:14:38;23.40;57.40
34927;DHT22;21132;48.308;14.274;2022-09-09T08:17:05;23.40;57.60
34927;DHT22;21132;48.308;14.274;2022-09-09T08:19:31;23.40;57.10
34927;DHT22;21132;48.308;14.274;2022-09-09T08:21:59;23.30;57.30
34927;DHT22;21132;48.308;14.274;2022-09-09T08:24:27;23.30;57.10
34927;DHT22;21132;48.308;14.274;2022-09-09T08:26:53;23.30;57.20
34927;DHT22;21132;48.308;14.274;2022-09-09T08:29:19;23.30;57.20
34927;DHT22;21132;48.308;14.274;2022-09-09T08:31:47;23.30;57.10
34927;DHT22;21132;48.308;14.274;2022-09-09T08:34:14;23.30;57.00
34927;DHT22;21132;48.308;14.274;2022-09-09T08:36:42;23.30;57.20
34927;DHT22;21132;48.308;14.274;2022-09-09T08:39:10;23.10;56.90
34927;DHT22;21132;48.308;14.274;2022-09-09T08:41:57;23.00;56.90
34927;DHT22;21132;48.308;14.274;2022-09-09T08:50:19;22.90;57.80
34927;DHT22;21132;48.308;14.274;2022-09-09T08:55:53;22.80;57.80
34927;DHT22;21132;48.308;14.274;2022-09-09T08:58:32;22.70;57.90
34927;DHT22;21132;48.308;14.274;2022-09-09T09:01:22;22.60;58.00
34927;DHT22;21132;48.308;14.274;2022-09-09T09:11:53;22.20;57.80
34927;DHT22;21132;48.308;14.274;2022-09-09T09:14:23;22.10;58.00
34927;DHT22;21132;48.308;14.274;2022-09-09T09:17:19;22.00;58.20
34927;DHT22;21132;48.308;14.274;2022-09-09T09:19:47;21.80;58.70
34927;DHT22;21132;48.308;14.274;2022-09-09T09:22:36;21.70;59.00
34927;DHT22;21132;48.308;14.274;2022-09-09T09:28:07;21.40;59.90
34927;DHT22;21132;48.308;14.274;2022-09-09T09:30:42;21.30;60.50
34927;DHT22;21132;48.308;14.274;2022-09-09T09:33:20;21.20;61.10
34927;DHT22;21132;48.308;14.274;2022-09-09T09:35:49;21.10;61.40
34927;DHT22;21132;48.308;14.274;2022-09-09T09:38:17;21.00;61.90
34927;DHT22;21132;48.308;14.274;2022-09-09T09:41:02;20.90;63.20
34927;DHT22;21132;48.308;14.274;2022-09-09T09:45:56;20.70;64.10
34927;DHT22;21132;48.308;14.274;2022-09-09T09:48:24;20.60;64.30
34927;DHT22;21132;48.308;14.274;2022-09-09T09:51:08;20.50;64.80
34927;DHT22;21132;48.308;14.274;2022-09-09T09:53:37;20.50;65.20
34927;DHT22;21132;48.308;14.274;2022-09-09T09:56:13;20.50;65.70
34927;DHT22;21132;48.308;14.274;2022-09-09T10:01:24;20.60;66.40
34927;DHT22;21132;48.308;14.274;2022-09-09T10:03:53;20.60;66.60
34927;DHT22;21132;48.308;14.274;2022-09-09T10:06:35;20.60;67.00
34927;DHT22;21132;48.308;14.274;2022-09-09T10:09:03;20.70;67.20
34927;DHT22;21132;48.308;14.274;2022-09-09T10:11:47;20.70;66.90
34927;DHT22;21132;48.308;14.274;2022-09-09T10:14:19;20.80;66.50
34927;DHT22;21132;48.308;14.274;2022-09-09T10:19:26;20.90;66.70
34927;DHT22;21132;48.308;14.274;2022-09-09T10:22:26;21.00;67.80
34927;DHT22;21132;48.308;14.274;2022-09-09T10:30:24;21.40;66.00
34927;DHT22;21132;48.308;14.274;2022-09-09T10:35:34;21.60;65.50
34927;DHT22;21132;48.308;14.274;2022-09-09T10:38:12;21.70;64.80
34927;DHT22;21132;48.308;14.274;2022-09-09T10:48:56;22.20;65.10
34927;DHT22;21132;48.308;14.274;2022-09-09T10:51:45;22.40;64.80
34927;DHT22;21132;48.308;14.274;2022-09-09T10:57:24;22.80;63.40
34927;DHT22;21132;48.308;14.274;2022-09-09T10:59:55;22.90;62.50
34927;DHT22;21132;48.308;14.274;2022-09-09T11:02:29;23.10;62.50
34927;DHT22;21132;48.308;14.274;2022-09-09T11:05:00;23.20;61.80
34927;DHT22;21132;48.308;14.274;2022-09-09T11:10:12;23.40;60.50
34927;DHT22;21132;48.308;14.274;2022-09-09T11:12:43;23.50;60.20
34927;DHT22;21132;48.308;14.274;2022-09-09T11:15:41;23.50;59.40
34927;DHT22;21132;48.308;14.274;2022-09-09T11:18:21;23.50;59.00
34927;DHT22;21132;48.308;14.274;2022-09-09T11:20:54;23.40;58.50
34927;DHT22;21132;48.308;14.274;2022-09-09T11:23:56;23.30;58.00
34927;DHT22;21132;48.308;14.274;2022-09-09T11:26:53;23.20;58.60
34927;DHT22;21132;48.308;14.274;2022-09-09T11:40:18;23.00;59.10
34927;DHT22;21132;48.308;14.274;2022-09-09T11:42:46;23.00;59.60
34927;DHT22;21132;48.308;14.274;2022-09-09T11:45:26;23.00;59.20
34927;DHT22;21132;48.308;14.274;2022-09-09T11:47:58;23.00;59.10
34927;DHT22;21132;48.308;14.274;2022-09-09T11:52:50;23.00;59.00
34927;DHT22;21132;48.308;14.274;2022-09-09T11:55:30;23.10;58.80
34927;DHT22;21132;48.308;14.274;2022-09-09T11:58:06;23.10;58.70
34927;DHT22;21132;48.308;14.274;2022-09-09T12:00:46;23.20;58.70
34927;DHT22;21132;48.308;14.274;2022-09-09T12:06:19;23.40;58.30
34927;DHT22;21132;48.308;14.274;2022-09-09T12:08:51;23.50;57.30
34927;DHT22;21132;48.308;14.274;2022-09-09T12:11:29;23.50;56.80
34927;DHT22;21132;48.308;14.274;2022-09-09T12:13:58;23.40;56.70
34927;DHT22;21132;48.308;14.274;2022-09-09T12:16:33;23.40;56.60
34927;DHT22;21132;48.308;14.274;2022-09-09T12:19:20;23.40;57.20
34927;DHT22;21132;48.308;14.274;2022-09-09T12:21:49;23.40;57.60
34927;DHT22;21132;48.308;14.274;2022-09-09T12:27:23;23.60;57.20
34927;DHT22;21132;48.308;14.274;2022-09-09T12:29:56;23.60;57.00
34927;DHT22;21132;48.308;14.274;2022-09-09T12:32:25;23.60;56.70
34927;DHT22;21132;48.308;14.274;2022-09-09T12:35:03;23.60;56.60
34927;DHT22;21132;48.308;14.274;2022-09-09T12:40:17;23.50;56.40
34927;DHT22;21132;48.308;14.274;2022-09-09T12:42:44;23.50;56.50
34927;DHT22;21132;48.308;14.274;2022-09-09T12:45:24;23.60;57.30
34927;DHT22;21132;48.308;14.274;2022-09-09T12:47:53;23.60;55.90
34927;DHT22;21132;48.308;14.274;2022-09-09T12:50:21;23.60;56.20
34927;DHT22;21132;48.308;14.274;2022-09-09T12:52:50;23.60;56.50
34927;DHT22;21132;48.308;14.274;2022-09-09T12:55:23;23.70;56.80
34927;DHT22;21132;48.308;14.274;2022-09-09T12:57:50;23.80;56.70
34927;DHT22;21132;48.308;14.274;2022-09-09T13:00:22;23.90;56.30
34927;DHT22;21132;48.308;14.274;2022-09-09T13:02:56;24.00;57.20
34927;DHT22;21132;48.308;14.274;2022-09-09T13:05:28;24.00;56.20
34927;DHT22;21132;48.308;14.274;2022-09-09T13:08:06;24.10;56.30
34927;DHT22;21132;48.308;14.274;2022-09-09T13:10:57;24.20;55.60
34927;DHT22;21132;48.308;14.274;2022-09-09T13:13:27;24.20;55.70
34927;DHT22;21132;48.308;14.274;2022-09-09T13:16:00;24.20;55.50
34927;DHT22;21132;48.308;14.274;2022-09-09T13:18:31;24.20;55.50
34927;DHT22;21132;48.308;14.274;2022-09-09T13:20:59;24.10;55.60
34927;DHT22;21132;48.308;14.274;2022-09-09T13:23:31;24.10;55.80
34927;DHT22;21132;48.308;14.274;2022-09-09T13:25:59;24.00;55.50
34927;DHT22;21132;48.308;14.274;2022-09-09T13:28:28;24.00;55.30
34927;DHT22;21132;48.308;14.274;2022-09-09T13:31:01;23.90;55.50
34927;DHT22;21132;48.308;14.274;2022-09-09T13:33:37;23.80;55.50
34927;DHT22;21132;48.308;14.274;2022-09-09T13:36:06;23.80;55.90
34927;DHT22;21132;48.308;14.274;2022-09-09T13:38:37;23.70;55.90
34927;DHT22;21132;48.308;14.274;2022-09-09T13:41:08;23.70;56.00
34927;DHT22;21132;48.308;14.274;2022-09-09T13:43:44;23.60;56.20
34927;DHT22;21132;48.308;14.274;2022-09-09T13:49:03;23.50;56.50
34927;DHT22;21132;48.308;14.274;2022-09-09T13:51:45;23.50;56.50
34927;DHT22;21132;48.308;14.274;2022-09-09T13:54:17;23.50;56.80
34927;DHT22;21132;48.308;14.274;2022-09-09T13:56:44;23.40;56.40
34927;DHT22;21132;48.308;14.274;2022-09-09T13:59:12;23.40;56.70
34927;DHT22;21132;48.308;14.274;2022-09-09T14:01:38;23.30;57.00
34927;DHT22;21132;48.308;14.274;2022-09-09T14:04:04;23.20;57.00
34927;DHT22;21132;48.308;14.274;2022-09-09T14:06:34;23.20;57.30
34927;DHT22;21132;48.308;14.274;2022-09-09T14:09:03;23.20;57.40
34927;DHT22;21132;48.308;14.274;2022-09-09T14:11:28;23.20;57.30
34927;DHT22;21132;48.308;14.274;2022-09-09T14:13:54;23.10;57.30
34927;DHT22;21132;48.308;14.274;2022-09-09T14:16:21;23.10;57.50
34927;DHT22;21132;48.308;14.274;2022-09-09T14:18:47;23.10;57.60
34927;DHT22;21132;48.308;14.274;2022-09-09T14:21:13;23.10;57.60
34927;DHT22;21132;48.308;14.274;2022-09-09T14:23:41;23.10;57.40
34927;DHT22;21132;48.308;14.274;2022-09-09T14:26:07;23.20;57.70
34927;DHT22;21132;48.308;14.274;2022-09-09T14:28:35;23.20;57.50
34927;DHT22;21132;48.308;14.274;2022-09-09T14:31:02;23.20;57.00
34927;DHT22;21132;48.308;14.274;2022-09-09T14:33:29;23.10;56.90
34927;DHT22;21132;48.308;14.274;2022-09-09T14:36:03;23.00;56.90
34927;DHT22;21132;48.308;14.274;2022-09-09T14:38:30;23.00;57.00
34927;DHT22;21132;48.308;14.274;2022-09-09T14:40:56;23.00;57.20
34927;DHT22;21132;48.308;14.274;2022-09-09T14:43:24;22.90;57.20
34927;DHT22;21132;48.308;14.274;2022-09-09T14:45:50;22.90;57.40
34927;DHT22;21132;48.308;14.274;2022-09-09T14:48:17;22.80;57.50
34927;DHT22;21132;48.308;14.274;2022-09-09T14:50:42;22.80;57.70
34927;DHT22;21132;48.308;14.274;2022-09-09T14:53:09;22.70;57.80
34927;DHT22;21132;48.308;14.274;2022-09-09T14:55:36;22.70;58.00
34927;DHT22;21132;48.308;14.274;2022-09-09T14:58:03;22.60;58.10
34927;DHT22;21132;48.308;14.274;2022-09-09T15:00:29;22.60;58.30
34927;DHT22;21132;48.308;14.274;2022-09-09T15:02:55;22.50;58.50
34927;DHT22;21132;48.308;14.274;2022-09-09T15:05:21;22.50;58.70
34927;DHT22;21132;48.308;14.274;2022-09-09T15:07:47;22.50;58.80
34927;DHT22;21132;48.308;14.274;2022-09-09T15:10:14;22.40;58.90
34927;DHT22;21132;48.308;14.274;2022-09-09T15:12:40;22.40;59.00
34927;DHT22;21132;48.308;14.274;2022-09-09T15:15:07;22.40;59.10
34927;DHT22;21132;48.308;14.274;2022-09-09T15:17:33;22.30;59.70
34927;DHT22;21132;48.308;14.274;2022-09-09T15:19:59;22.30;59.30
34927;DHT22;21132;48.308;14.274;2022-09-09T15:22:25;22.30;59.40
34927;DHT22;21132;48.308;14.274;2022-09-09T15:24:51;22.30;59.40
34927;DHT22;21132;48.308;14.274;2022-09-09T15:27:17;22.20;59.40
34927;DHT22;21132;48.308;14.274;2022-09-09T15:29:43;22.20;59.50
34927;DHT22;21132;48.308;14.274;2022-09-09T15:32:09;22.10;59.50
34927;DHT22;21132;48.308;14.274;2022-09-09T15:34:35;22.10;59.60
34927;DHT22;21132;48.308;14.274;2022-09-09T15:37:01;22.10;59.60
34927;DHT22;21132;48.308;14.274;2022-09-09T15:39:27;22.10;59.60
34927;DHT22;21132;48.308;14.274;2022-09-09T15:41:52;22.10;59.80
34927;DHT22;21132;48.308;14.274;2022-09-09T15:44:18;22.10;59.80
34927;DHT22;21132;48.308;14.274;2022-09-09T15:46:46;22.00;59.60
34927;DHT22;21132;48.308;14.274;2022-09-09T15:49:19;22.00;59.60
34927;DHT22;21132;48.308;14.274;2022-09-09T15:51:54;22.00;59.60
34927;DHT22;21132;48.308;14.274;2022-09-09T15:54:22;22.00;59.60
34927;DHT22;21132;48.308;14.274;2022-09-09T15:56:54;22.00;59.60
34927;DHT22;21132;48.308;14.274;2022-09-09T15:59:22;22.00;59.60
34927;DHT22;21132;48.308;14.274;2022-09-09T16:01:48;22.00;59.40
34927;DHT22;21132;48.308;14.274;2022-09-09T16:04:17;22.00;59.40
34927;DHT22;21132;48.308;14.274;2022-09-09T16:06:52;21.90;59.40
34927;DHT22;21132;48.308;14.274;2022-09-09T16:09:19;21.90;59.40
34927;DHT22;21132;48.308;14.274;2022-09-09T16:11:44;21.90;59.60
34927;DHT22;21132;48.308;14.274;2022-09-09T16:14:12;21.90;59.60
34927;DHT22;21132;48.308;14.274;2022-09-09T16:16:38;21.80;59.50
34927;DHT22;21132;48.308;14.274;2022-09-09T16:19:06;21.80;59.60
34927;DHT22;21132;48.308;14.274;2022-09-09T16:21:34;21.70;60.60
34927;DHT22;21132;48.308;14.274;2022-09-09T16:24:01;21.70;60.00
34927;DHT22;21132;48.308;14.274;2022-09-09T16:26:29;21.60;60.30
34927;DHT22;21132;48.308;14.274;2022-09-09T16:28:56;21.60;60.50
34927;DHT22;21132;48.308;14.274;2022-09-09T16:31:28;21.60;60.50
34927;DHT22;21132;48.308;14.274;2022-09-09T16:33:55;21.50;61.00
34927;DHT22;21132;48.308;14.274;2022-09-09T16:36:23;21.50;61.20
34927;DHT22;21132;48.308;14.274;2022-09-09T16:38:56;21.40;61.50
34927;DHT22;21132;48.308;14.274;2022-09-09T16:41:24;21.40;61.90
34927;DHT22;21132;48.308;14.274;2022-09-09T16:43:57;21.40;62.00
34927;DHT22;21132;48.308;14.274;2022-09-09T16:46:26;21.40;62.40
34927;DHT22;21132;48.308;14.274;2022-09-09T16:48:53;21.30;62.50
34927;DHT22;21132;48.308;14.274;2022-09-09T16:51:23;21.30;62.60
34927;DHT22;21132;48.308;14.274;2022-09-09T16:53:49;21.30;62.90
34927;DHT22;21132;48.308;14.274;2022-09-09T16:56:20;21.30;63.10
34927;DHT22;21132;48.308;14.274;2022-09-09T16:58:51;21.20;63.20
34927;DHT22;21132;48.308;14.274;2022-09-09T17:01:17;21.20;63.20
34927;DHT22;21132;48.308;14.274;2022-09-09T17:03:42;21.20;63.30
34927;DHT22;21132;48.308;14.274;2022-09-09T17:06:13;21.10;63.60
34927;DHT22;21132;48.308;14.274;2022-09-09T17:08:40;21.10;64.00
34927;DHT22;21132;48.308;14.274;2022-09-09T17:11:13;21.10;64.10
34927;DHT22;21132;48.308;14.274;2022-09-09T17:13:44;21.10;64.30
34927;DHT22;21132;48.308;14.274;2022-09-09T17:16:11;21.10;64.60
34927;DHT22;21132;48.308;14.274;2022-09-09T17:18:37;21.10;64.70
34927;DHT22;21132;48.308;14.274;2022-09-09T17:21:05;21.10;64.60
34927;DHT22;21132;48.308;14.274;2022-09-09T17:23:32;21.00;64.80
34927;DHT22;21132;48.308;14.274;2022-09-09T17:25:59;21.00;65.00
34927;DHT22;21132;48.308;14.274;2022-09-09T17:28:26;21.00;64.90
34927;DHT22;21132;48.308;14.274;2022-09-09T17:31:00;21.00;65.10